createdAt,value
2023-03-30T00:01:12.660Z,31.00
2023-03-30T00:09:23.040Z,32.10
2023-03-30T00:17:28.549Z,26.50
2023-03-30T00:25:36.740Z,26.65
2023-03-30T00:33:46.941Z,30.58
2023-03-30T00:41:56.181Z,28.33
2023-03-30T00:50:02.037Z,23.15
2023-03-30T00:58:12.795Z,18.58
2023-03-30T01:06:22.146Z,20.52
2023-03-30T01:14:30.557Z,15.70
2023-03-30T01:23:13.748Z,16.67
2023-03-30T01:31:44.277Z,17.63
2023-03-30T01:39:59.354Z,19.13
2023-03-30T01:48:11.389Z,18.88
2023-03-30T01:56:27.497Z,14.52
2023-03-30T02:04:39.066Z,15.27
2023-03-30T02:12:48.135Z,13.63
2023-03-30T02:20:53.655Z,15.93
2023-03-30T02:29:02.101Z,15.57
2023-03-30T02:37:38.325Z,17.02
2023-03-30T02:45:55.787Z,18.75
2023-03-30T02:54:09.731Z,19.20
2023-03-30T03:02:41.942Z,24.80
2023-03-30T03:10:59.584Z,20.17
2023-03-30T03:19:10.232Z,18.98
2023-03-30T03:27:17.449Z,14.68
2023-03-30T03:35:54.405Z,13.35
2023-03-30T03:44:01.539Z,20.20
2023-03-30T03:52:11.401Z,15.88
2023-03-30T04:00:29.606Z,13.27
2023-03-30T04:08:38.352Z,15.02
2023-03-30T04:16:58.228Z,23.77
2023-03-30T04:25:32.642Z,14.57
2023-03-30T04:34:05.122Z,16.52
2023-03-30T04:42:21.187Z,19.45
2023-03-30T04:50:51.060Z,17.80
2023-03-30T04:59:17.944Z,15.18
2023-03-30T05:07:46.794Z,17.00
2023-03-30T05:16:33.113Z,14.43
2023-03-30T05:24:53.919Z,18.33
2023-03-30T05:33:33.835Z,17.00
2023-03-30T05:41:57.907Z,14.57
2023-03-30T05:50:24.984Z,19.00
2023-03-30T05:58:40.696Z,18.95
2023-03-30T06:06:56.193Z,14.70
2023-03-30T06:15:03.364Z,13.95
2023-03-30T06:23:26.647Z,13.57
2023-03-30T06:31:35.991Z,16.38
2023-03-30T06:40:14.957Z,15.27
2023-03-30T06:48:25.795Z,11.48
2023-03-30T06:56:54.947Z,15.27
2023-03-30T07:05:01.895Z,11.68
2023-03-30T07:13:38.223Z,14.60
2023-03-30T07:21:43.886Z,8.50
2023-03-30T07:29:55.848Z,9.75
2023-03-30T07:38:03.905Z,7.10
2023-03-30T07:46:16.521Z,7.78
2023-03-30T07:54:25.814Z,8.25
2023-03-30T08:03:01.317Z,6.78
2023-03-30T08:11:11.434Z,3.90
2023-03-30T08:19:22.369Z,4.72
2023-03-30T08:27:28.287Z,5.00
2023-03-30T08:35:36.537Z,2.05
2023-03-30T08:43:50.279Z,5.78
2023-03-30T09:00:18.186Z,2.45
2023-03-30T09:08:29.542Z,3.42
2023-03-30T09:16:41.865Z,3.80
2023-03-30T09:24:51.765Z,3.38
2023-03-30T09:33:03.751Z,4.60
2023-03-30T09:41:23.633Z,5.68
2023-03-30T09:49:33.810Z,3.58
2023-03-30T09:57:42.451Z,3.78
2023-03-30T10:05:48.196Z,3.08
2023-03-30T10:13:56.627Z,2.78
2023-03-30T10:22:04.623Z,3.17
2023-03-30T10:30:22.270Z,1.60
2023-03-30T10:38:28.307Z,3.55
2023-03-30T10:46:36.760Z,2.05
2023-03-30T10:54:47.162Z,1.70
2023-03-30T11:03:02.752Z,4.95
2023-03-30T11:11:10.648Z,2.10
2023-03-30T11:19:25.078Z,2.85
2023-03-30T11:27:34.617Z,1.98
2023-03-30T11:35:48.754Z,2.33
2023-03-30T11:43:56.324Z,1.75
2023-03-30T11:52:16.924Z,1.65
2023-03-30T12:00:34.976Z,1.73
2023-03-30T12:08:57.616Z,3.53
2023-03-30T12:17:08.516Z,1.58
2023-03-30T12:25:27.918Z,3.55
2023-03-30T12:33:38.684Z,4.85
2023-03-30T12:41:52.346Z,4.18
2023-03-30T12:50:21.595Z,4.00
2023-03-30T12:58:38.459Z,6.50
2023-03-30T13:06:54.102Z,3.88
2023-03-30T13:15:03.753Z,3.03
2023-03-30T13:23:34.310Z,3.03
2023-03-30T13:32:07.815Z,4.30
2023-03-30T13:49:10.074Z,4.43
2023-03-30T13:57:24.075Z,3.15
2023-03-30T14:05:34.934Z,5.22
2023-03-30T14:13:43.151Z,3.17
2023-03-30T14:21:50.476Z,2.60
2023-03-30T14:29:59.001Z,3.97
2023-03-30T14:38:16.308Z,3.20
2023-03-30T14:46:26.947Z,5.47
2023-03-30T14:54:33.706Z,4.82
2023-03-30T15:02:43.088Z,4.00
2023-03-30T15:10:53.298Z,4.28
2023-03-30T15:19:05.991Z,6.88
2023-03-30T15:27:12.610Z,4.90
2023-03-30T15:35:26.237Z,6.57
2023-03-30T15:43:33.821Z,4.13
2023-03-30T15:51:45.506Z,5.32
2023-03-30T15:59:54.139Z,6.55
2023-03-30T16:08:02.516Z,6.13
2023-03-30T16:16:08.536Z,6.53
2023-03-30T16:24:17.969Z,15.18
2023-03-30T16:32:28.115Z,22.30
2023-03-30T16:40:43.102Z,16.15
2023-03-30T17:14:34.601Z,11.98
2023-03-30T17:22:40.328Z,7.40
2023-03-30T17:30:49.315Z,7.68
2023-03-30T17:38:59.840Z,12.15
2023-03-30T17:47:08.094Z,12.32
2023-03-30T17:55:13.671Z,11.23
2023-03-30T18:03:23.580Z,13.38
2023-03-30T18:11:29.198Z,20.38
2023-03-30T18:19:37.301Z,18.65
2023-03-30T18:27:43.008Z,12.10
2023-03-30T18:35:52.894Z,16.40
2023-03-30T18:44:03.057Z,14.03
2023-03-30T18:52:11.312Z,17.58
2023-03-30T19:00:22.561Z,14.65
2023-03-30T19:08:31.129Z,21.77
2023-03-30T19:16:36.643Z,23.33
2023-03-30T19:24:44.735Z,20.30
2023-03-30T19:32:51.345Z,33.03
2023-03-30T19:41:03.439Z,34.05
2023-03-30T19:49:10.792Z,42.72
2023-03-30T19:57:19.270Z,37.92
2023-03-30T20:05:27.462Z,32.00
2023-03-30T20:13:37.115Z,20.48
2023-03-30T20:21:42.583Z,18.60
2023-03-30T20:29:51.091Z,29.00
2023-03-30T20:37:56.701Z,28.02
2023-03-30T20:46:09.916Z,30.50
2023-03-30T20:54:15.968Z,25.65
2023-03-30T21:02:24.060Z,29.05
2023-03-30T21:10:29.549Z,31.92
2023-03-30T21:18:38.605Z,30.52
2023-03-30T21:26:44.071Z,39.97
2023-03-30T21:34:52.116Z,31.75
2023-03-30T21:42:57.537Z,27.63
2023-03-30T21:51:08.052Z,29.60
2023-03-30T21:59:13.736Z,26.77
2023-03-30T22:07:22.080Z,25.75
2023-03-30T22:15:27.538Z,23.38
2023-03-30T22:23:35.735Z,27.67
2023-03-30T22:31:41.478Z,25.20
2023-03-30T22:39:49.689Z,26.23
2023-03-30T22:47:55.597Z,26.33
2023-03-30T22:56:04.581Z,20.65
2023-03-30T23:04:10.250Z,18.60
2023-03-30T23:12:18.247Z,17.73
2023-03-30T23:20:23.691Z,17.25
2023-03-30T23:28:32.473Z,19.38
2023-03-30T23:36:38.053Z,20.23
2023-03-30T23:44:46.220Z,20.90
2023-03-30T23:52:51.821Z,24.35
